sensor_id;sensor_type;location;lat;lon;timestamp;pressure;altitude;pressure_sealevel;temperature;humidity
25855;BME280;13680;49.936;11.344;2023-02-15T00:01:36;98172.09;;;1.94;84.78
25855;BME280;13680;49.936;11.344;2023-02-15T00:04:02;98171.28;;;1.87;84.63
25855;BME280;13680;49.936;11.344;2023-02-15T00:06:27;98160.72;;;1.80;85.10
25855;BME280;13680;49.936;11.344;2023-02-15T00:08:54;98163.56;;;1.85;84.20
25855;BME280;13680;49.936;11.344;2023-02-15T00:11:20;98164.97;;;1.81;84.95
25855;BME280;13680;49.936;11.344;2023-02-15T00:16:44;98160.09;;;1.78;84.95
25855;BME280;13680;49.936;11.344;2023-02-15T00:19:11;98150.88;;;1.87;84.87
25855;BME280;13680;49.936;11.344;2023-02-15T00:21:37;98150.47;;;1.90;84.86
25855;BME280;13680;49.936;11.344;2023-02-15T00:24:04;98147.59;;;1.92;84.97
25855;BME280;13680;49.936;11.344;2023-02-15T00:26:30;98147.59;;;1.92;84.95
25855;BME280;13680;49.936;11.344;2023-02-15T00:28:56;98145.75;;;1.92;84.40
25855;BME280;13680;49.936;11.344;2023-02-15T00:31:26;98136.16;;;1.91;85.06
25855;BME280;13680;49.936;11.344;2023-02-15T00:33:52;98140.22;;;2.07;84.57
25855;BME280;13680;49.936;11.344;2023-02-15T00:36:17;98130.44;;;2.01;84.17
25855;BME280;13680;49.936;11.344;2023-02-15T00:38:42;98141.69;;;1.96;84.22
25855;BME280;13680;49.936;11.344;2023-02-15T00:41:08;98137.81;;;1.86;84.92
25855;BME280;13680;49.936;11.344;2023-02-15T00:43:35;98146.03;;;1.77;84.78
25855;BME280;13680;49.936;11.344;2023-02-15T00:46:02;98144.97;;;1.78;85.00
25855;BME280;13680;49.936;11.344;2023-02-15T00:48:28;98147.63;;;1.78;84.08
25855;BME280;13680;49.936;11.344;2023-02-15T00:50:58;98148.88;;;1.76;83.14
25855;BME280;13680;49.936;11.344;2023-02-15T00:53:25;98138.69;;;1.66;83.91
25855;BME280;13680;49.936;11.344;2023-02-15T00:55:51;98141.97;;;1.55;84.23
25855;BME280;13680;49.936;11.344;2023-02-15T00:58:17;98135.88;;;1.61;84.77
25855;BME280;13680;49.936;11.344;2023-02-15T01:00:45;98127.50;;;1.57;84.84
25855;BME280;13680;49.936;11.344;2023-02-15T01:03:12;98137.06;;;1.65;84.45
25855;BME280;13680;49.936;11.344;2023-02-15T01:05:38;98131.97;;;1.70;83.83
25855;BME280;13680;49.936;11.344;2023-02-15T01:08:03;98123.19;;;1.63;83.75
25855;BME280;13680;49.936;11.344;2023-02-15T01:10:29;98130.38;;;1.56;83.91
25855;BME280;13680;49.936;11.344;2023-02-15T01:12:56;98121.16;;;1.52;84.60
25855;BME280;13680;49.936;11.344;2023-02-15T01:15:22;98118.34;;;1.40;84.33
25855;BME280;13680;49.936;11.344;2023-02-15T01:17:47;98113.03;;;1.46;84.85
25855;BME280;13680;49.936;11.344;2023-02-15T01:20:21;98113.44;;;1.43;84.56
25855;BME280;13680;49.936;11.344;2023-02-15T01:22:47;98118.34;;;1.40;84.76
25855;BME280;13680;49.936;11.344;2023-02-15T01:25:17;98116.28;;;1.49;85.08
25855;BME280;13680;49.936;11.344;2023-02-15T01:27:43;98117.50;;;1.53;84.32
25855;BME280;13680;49.936;11.344;2023-02-15T01:30:10;98115.94;;;1.32;85.31
25855;BME280;13680;49.936;11.344;2023-02-15T01:32:35;98115.09;;;1.44;85.21
25855;BME280;13680;49.936;11.344;2023-02-15T01:35:01;98114.47;;;1.42;84.84
25855;BME280;13680;49.936;11.344;2023-02-15T01:37:26;98115.09;;;1.44;84.42
25855;BME280;13680;49.936;11.344;2023-02-15T01:39:52;98112.03;;;1.34;84.24
25855;BME280;13680;49.936;11.344;2023-02-15T01:42:22;98110.59;;;1.25;84.50
25855;BME280;13680;49.936;11.344;2023-02-15T01:45:43;98118.38;;;1.00;85.70
25855;BME280;13680;49.936;11.344;2023-02-15T01:47:51;98106.56;;;1.09;85.47
25855;BME280;13680;49.936;11.344;2023-02-15T01:50:23;98099.63;;;1.14;85.83
25855;BME280;13680;49.936;11.344;2023-02-15T01:55:23;98097.56;;;1.03;86.66
25855;BME280;13680;49.936;11.344;2023-02-15T01:57:50;98093.50;;;0.94;86.53
25855;BME280;13680;49.936;11.344;2023-02-15T02:00:16;98082.53;;;0.97;86.84
25855;BME280;13680;49.936;11.344;2023-02-15T02:02:45;98082.69;;;1.16;85.88
25855;BME280;13680;49.936;11.344;2023-02-15T02:05:11;98087.81;;;1.24;85.75
25855;BME280;13680;49.936;11.344;2023-02-15T02:07:40;98084.97;;;1.05;86.44
25855;BME280;13680;49.936;11.344;2023-02-15T02:10:09;98079.44;;;1.13;86.15
25855;BME280;13680;49.936;11.344;2023-02-15T02:12:36;98079.66;;;1.25;85.53
25855;BME280;13680;49.936;11.344;2023-02-15T02:15:04;98073.69;;;1.30;85.82
25855;BME280;13680;49.936;11.344;2023-02-15T02:26:01;98070.03;;;1.31;85.35
25855;BME280;13680;49.936;11.344;2023-02-15T02:31:44;98079.41;;;1.34;85.12
25855;BME280;13680;49.936;11.344;2023-02-15T02:37:06;98067.81;;;1.28;84.98
25855;BME280;13680;49.936;11.344;2023-02-15T02:39:59;98074.31;;;1.32;84.53
25855;BME280;13680;49.936;11.344;2023-02-15T02:42:31;98069.84;;;1.39;83.93
25855;BME280;13680;49.936;11.344;2023-02-15T02:45:05;98068.38;;;1.43;83.94
25855;BME280;13680;49.936;11.344;2023-02-15T02:50:08;98061.69;;;1.34;83.36
25855;BME280;13680;49.936;11.344;2023-02-15T02:52:46;98062.09;;;1.24;83.57
25855;BME280;13680;49.936;11.344;2023-02-15T02:57:57;98051.94;;;1.14;83.54
25855;BME280;13680;49.936;11.344;2023-02-15T03:00:28;98050.28;;;1.13;83.04
25855;BME280;13680;49.936;11.344;2023-02-15T03:03:00;98048.25;;;1.16;82.78
25855;BME280;13680;49.936;11.344;2023-02-15T03:05:30;98042.78;;;0.84;83.78
25855;BME280;13680;49.936;11.344;2023-02-15T03:07:58;98041.38;;;0.74;84.33
25855;BME280;13680;49.936;11.344;2023-02-15T03:10:27;98036.47;;;0.85;83.86
25855;BME280;13680;49.936;11.344;2023-02-15T03:12:54;98034.44;;;0.87;83.59
25855;BME280;13680;49.936;11.344;2023-02-15T03:15:26;98036.50;;;0.78;83.92
25855;BME280;13680;49.936;11.344;2023-02-15T03:18:17;98040.75;;;0.92;83.80
25855;BME280;13680;49.936;11.344;2023-02-15T03:20:44;98055.63;;;0.87;83.53
25855;BME280;13680;49.936;11.344;2023-02-15T03:23:13;98040.75;;;0.92;83.20
25855;BME280;13680;49.936;11.344;2023-02-15T03:25:43;98043.81;;;0.96;82.94
25855;BME280;13680;49.936;11.344;2023-02-15T03:28:13;98046.88;;;0.86;83.82
25855;BME280;13680;49.936;11.344;2023-02-15T03:30:42;98053.59;;;0.89;83.45
25855;BME280;13680;49.936;11.344;2023-02-15T03:33:11;98041.78;;;0.85;84.05
25855;BME280;13680;49.936;11.344;2023-02-15T03:35:49;98036.06;;;0.88;83.77
25855;BME280;13680;49.936;11.344;2023-02-15T03:38:22;98039.34;;;0.90;84.58
25855;BME280;13680;49.936;11.344;2023-02-15T03:40:53;98042.78;;;0.97;83.56
25855;BME280;13680;49.936;11.344;2023-02-15T03:46:20;98043.59;;;1.04;83.73
25855;BME280;13680;49.936;11.344;2023-02-15T03:48:53;98037.09;;;0.93;83.97
25855;BME280;13680;49.936;11.344;2023-02-15T03:51:31;98033.84;;;0.85;83.90
25855;BME280;13680;49.936;11.344;2023-02-15T03:53:59;98045.03;;;0.93;84.10
25855;BME280;13680;49.936;11.344;2023-02-15T03:56:25;98039.34;;;0.90;84.29
25855;BME280;13680;49.936;11.344;2023-02-15T03:58:50;98039.94;;;0.98;83.79
25855;BME280;13680;49.936;11.344;2023-02-15T04:01:38;98041.38;;;0.74;84.05
25855;BME280;13680;49.936;11.344;2023-02-15T04:04:34;98049.94;;;0.90;84.36
25855;BME280;13680;49.936;11.344;2023-02-15T04:07:01;98051.56;;;0.91;83.51
25855;BME280;13680;49.936;11.344;2023-02-15T04:09:26;98054.00;;;0.86;83.66
25855;BME280;13680;49.936;11.344;2023-02-15T04:12:10;98056.44;;;0.87;83.09
25855;BME280;13680;49.936;11.344;2023-02-15T04:14:36;98062.53;;;0.88;83.96
25855;BME280;13680;49.936;11.344;2023-02-15T04:17:39;98058.06;;;0.95;83.56
25855;BME280;13680;49.936;11.344;2023-02-15T04:20:05;98061.34;;;0.97;83.36
25855;BME280;13680;49.936;11.344;2023-02-15T04:22:49;98062.13;;;0.97;83.50
25855;BME280;13680;49.936;11.344;2023-02-15T04:25:34;98063.56;;;1.00;83.32
25855;BME280;13680;49.936;11.344;2023-02-15T04:27:59;98061.53;;;0.89;83.60
25855;BME280;13680;49.936;11.344;2023-02-15T04:30:25;98058.47;;;0.92;83.41
25855;BME280;13680;49.936;11.344;2023-02-15T04:32:50;98063.38;;;0.95;82.91
25855;BME280;13680;49.936;11.344;2023-02-15T04:35:16;98064.78;;;0.97;82.46
25855;BME280;13680;49.936;11.344;2023-02-15T04:37:42;98064.38;;;0.94;82.03
25855;BME280;13680;49.936;11.344;2023-02-15T04:40:11;98053.16;;;0.65;82.82
25855;BME280;13680;49.936;11.344;2023-02-15T04:42:36;98060.50;;;0.76;82.14
25855;BME280;13680;49.936;11.344;2023-02-15T04:45:02;98051.16;;;0.54;82.56
25855;BME280;13680;49.936;11.344;2023-02-15T04:47:27;98053.59;;;0.69;82.52
25855;BME280;13680;49.936;11.344;2023-02-15T04:49:53;98050.13;;;0.68;82.52
25855;BME280;13680;49.936;11.344;2023-02-15T04:52:18;98055.22;;;0.63;83.39
25855;BME280;13680;49.936;11.344;2023-02-15T04:54:44;98051.94;;;0.61;82.84
25855;BME280;13680;49.936;11.344;2023-02-15T04:57:09;98047.91;;;0.72;83.21
25855;BME280;13680;49.936;11.344;2023-02-15T04:59:35;98041.78;;;0.64;83.05
25855;BME280;13680;49.936;11.344;2023-02-15T05:02:00;98046.66;;;0.74;83.29
25855;BME280;13680;49.936;11.344;2023-02-15T05:04:25;98045.44;;;0.77;82.57
25855;BME280;13680;49.936;11.344;2023-02-15T05:06:51;98053.19;;;0.78;82.39
25855;BME280;13680;49.936;11.344;2023-02-15T05:09:16;98052.56;;;0.70;82.64
25855;BME280;13680;49.936;11.344;2023-02-15T05:11:42;98053.19;;;0.78;83.00
25855;BME280;13680;49.936;11.344;2023-02-15T05:14:07;98036.88;;;0.81;82.77
25855;BME280;13680;49.936;11.344;2023-02-15T05:16:33;98046.47;;;0.69;83.52
25855;BME280;13680;49.936;11.344;2023-02-15T05:18:58;98046.66;;;0.61;83.40
25855;BME280;13680;49.936;11.344;2023-02-15T05:21:24;98035.66;;;0.57;83.65
25855;BME280;13680;49.936;11.344;2023-02-15T05:23:50;98042.59;;;0.58;83.38
25855;BME280;13680;49.936;11.344;2023-02-15T05:26:18;98035.88;;;0.69;83.78
25855;BME280;13680;49.936;11.344;2023-02-15T05:29:02;98035.88;;;0.42;84.49
25855;BME280;13680;49.936;11.344;2023-02-15T05:31:30;98036.06;;;0.47;83.92
25855;BME280;13680;49.936;11.344;2023-02-15T05:33:55;98028.72;;;0.49;83.70
25855;BME280;13680;49.936;11.344;2023-02-15T05:36:21;98030.97;;;0.46;83.70
25855;BME280;13680;49.936;11.344;2023-02-15T05:38:46;98029.94;;;0.40;83.94
25855;BME280;13680;49.936;11.344;2023-02-15T05:41:11;98023.81;;;0.26;84.63
25855;BME280;13680;49.936;11.344;2023-02-15T05:43:37;98023.03;;;0.26;84.60
25855;BME280;13680;49.936;11.344;2023-02-15T05:46:03;98033.59;;;0.26;84.78
25855;BME280;13680;49.936;11.344;2023-02-15T05:48:29;98028.69;;;0.23;84.36
25855;BME280;13680;49.936;11.344;2023-02-15T05:51:10;98025.41;;;0.14;84.16
25855;BME280;13680;49.936;11.344;2023-02-15T05:53:40;98023.81;;;0.33;83.94
25855;BME280;13680;49.936;11.344;2023-02-15T05:56:07;98022.59;;;0.36;83.31
25855;BME280;13680;49.936;11.344;2023-02-15T05:58:35;98018.31;;;0.28;83.82
25855;BME280;13680;49.936;11.344;2023-02-15T06:01:15;98013.41;;;0.11;84.41
25855;BME280;13680;49.936;11.344;2023-02-15T06:03:42;98016.94;;;0.32;83.81
25855;BME280;13680;49.936;11.344;2023-02-15T06:06:07;98010.97;;;0.16;84.29
25855;BME280;13680;49.936;11.344;2023-02-15T06:08:34;98009.59;;;0.27;84.43
25855;BME280;13680;49.936;11.344;2023-02-15T06:11:00;98018.91;;;0.10;85.09
25855;BME280;13680;49.936;11.344;2023-02-15T06:13:25;98012.03;;;0.15;85.43
25855;BME280;13680;49.936;11.344;2023-02-15T06:15:50;98019.28;;;-0.07;85.60
25855;BME280;13680;49.936;11.344;2023-02-15T06:18:16;98010.31;;;-0.12;85.57
25855;BME280;13680;49.936;11.344;2023-02-15T06:20:41;98014.00;;;-0.07;85.32
25855;BME280;13680;49.936;11.344;2023-02-15T06:23:06;98006.91;;;0.01;84.89
25855;BME280;13680;49.936;11.344;2023-02-15T06:25:32;98010.19;;;0.09;84.93
25855;BME280;13680;49.936;11.344;2023-02-15T06:27:57;98009.13;;;0.04;85.42
25855;BME280;13680;49.936;11.344;2023-02-15T06:30:22;98009.75;;;-0.01;85.34
25855;BME280;13680;49.936;11.344;2023-02-15T06:32:48;98003.47;;;0.13;84.48
25855;BME280;13680;49.936;11.344;2023-02-15T06:35:13;98015.66;;;0.08;84.95
25855;BME280;13680;49.936;11.344;2023-02-15T06:37:39;98009.59;;;0.21;84.39
25855;BME280;13680;49.936;11.344;2023-02-15T06:40:05;98013.25;;;0.20;84.28
25855;BME280;13680;49.936;11.344;2023-02-15T06:42:30;98018.09;;;0.03;84.52
25855;BME280;13680;49.936;11.344;2023-02-15T06:44:55;98012.81;;;0.23;83.94
25855;BME280;13680;49.936;11.344;2023-02-15T06:47:21;98015.69;;;0.14;84.16
25855;BME280;13680;49.936;11.344;2023-02-15T06:49:46;98017.31;;;0.15;83.33
25855;BME280;13680;49.936;11.344;2023-02-15T06:52:11;98025.03;;;0.24;83.00
25855;BME280;13680;49.936;11.344;2023-02-15T06:54:37;98028.06;;;0.14;82.82
25855;BME280;13680;49.936;11.344;2023-02-15T06:57:02;98024.41;;;0.15;82.08
25855;BME280;13680;49.936;11.344;2023-02-15T06:59:27;98020.91;;;0.01;82.34
25855;BME280;13680;49.936;11.344;2023-02-15T07:01:53;98023.75;;;-0.07;84.18
25855;BME280;13680;49.936;11.344;2023-02-15T07:04:18;98017.91;;;0.04;83.96
25855;BME280;13680;49.936;11.344;2023-02-15T07:06:43;98020.38;;;0.26;82.67
25855;BME280;13680;49.936;11.344;2023-02-15T07:09:08;98016.91;;;0.19;83.26
25855;BME280;13680;49.936;11.344;2023-02-15T07:11:34;98018.53;;;0.33;82.94
25855;BME280;13680;49.936;11.344;2023-02-15T07:14:18;98019.78;;;0.37;82.63
25855;BME280;13680;49.936;11.344;2023-02-15T07:16:43;98023.66;;;0.41;82.27
25855;BME280;13680;49.936;11.344;2023-02-15T07:19:09;98023.03;;;0.39;82.07
25855;BME280;13680;49.936;11.344;2023-02-15T07:21:35;98022.22;;;0.32;82.52
25855;BME280;13680;49.936;11.344;2023-02-15T07:24:01;98022.63;;;0.62;82.51
25855;BME280;13680;49.936;11.344;2023-02-15T07:26:26;98031.16;;;0.44;81.83
25855;BME280;13680;49.936;11.344;2023-02-15T07:28:52;98023.03;;;0.39;82.33
25855;BME280;13680;49.936;11.344;2023-02-15T07:31:17;98010.59;;;0.80;87.96
25855;BME280;13680;49.936;11.344;2023-02-15T07:33:42;98010.78;;;0.92;89.46
25855;BME280;13680;49.936;11.344;2023-02-15T07:36:08;98015.31;;;0.85;87.73
25855;BME280;13680;49.936;11.344;2023-02-15T07:38:38;98000.13;;;1.19;89.36
25855;BME280;13680;49.936;11.344;2023-02-15T07:41:06;97993.88;;;1.06;86.93
25855;BME280;13680;49.936;11.344;2023-02-15T07:43:34;97997.13;;;1.08;86.90
25855;BME280;13680;49.936;11.344;2023-02-15T07:46:00;97999.63;;;0.83;83.90
25855;BME280;13680;49.936;11.344;2023-02-15T07:48:26;97989.53;;;1.19;82.71
25855;BME280;13680;49.936;11.344;2023-02-15T07:50:52;97989.16;;;1.08;81.21
25855;BME280;13680;49.936;11.344;2023-02-15T07:53:17;98001.88;;;0.79;80.73
25855;BME280;13680;49.936;11.344;2023-02-15T07:55:43;97998.41;;;0.86;80.63
25855;BME280;13680;49.936;11.344;2023-02-15T07:58:08;97993.28;;;0.91;79.72
25855;BME280;13680;49.936;11.344;2023-02-15T08:00:34;98004.09;;;0.76;80.18
25855;BME280;13680;49.936;11.344;2023-02-15T08:03:19;98003.28;;;0.89;79.57
25855;BME280;13680;49.936;11.344;2023-02-15T08:05:45;97996.72;;;0.98;79.51
25855;BME280;13680;49.936;11.344;2023-02-15T08:08:11;97992.03;;;1.07;79.69
25855;BME280;13680;49.936;11.344;2023-02-15T08:11:09;97994.47;;;1.08;79.35
25855;BME280;13680;49.936;11.344;2023-02-15T08:14:00;97997.31;;;1.13;80.03
25855;BME280;13680;49.936;11.344;2023-02-15T08:16:47;98001.53;;;1.35;79.39
25855;BME280;13680;49.936;11.344;2023-02-15T08:21:51;97998.47;;;1.38;79.33
25855;BME280;13680;49.936;11.344;2023-02-15T08:24:20;98003.41;;;1.21;78.59
25855;BME280;13680;49.936;11.344;2023-02-15T08:26:46;98006.41;;;1.44;77.90
25855;BME280;13680;49.936;11.344;2023-02-15T08:29:14;97997.22;;;1.40;77.76
25855;BME280;13680;49.936;11.344;2023-02-15T08:31:40;98002.81;;;1.12;78.63
25855;BME280;13680;49.936;11.344;2023-02-15T08:34:10;98005.78;;;1.42;78.49
25855;BME280;13680;49.936;11.344;2023-02-15T08:36:37;98012.47;;;1.52;77.99
25855;BME280;13680;49.936;11.344;2023-02-15T08:39:04;98004.91;;;1.62;78.04
25855;BME280;13680;49.936;11.344;2023-02-15T08:41:32;98012.84;;;1.69;77.76
25855;BME280;13680;49.936;11.344;2023-02-15T08:44:00;98008.91;;;1.78;77.57
25855;BME280;13680;49.936;11.344;2023-02-15T08:46:28;98004.03;;;1.75;77.73
25855;BME280;13680;49.936;11.344;2023-02-15T08:48:54;98004.41;;;1.78;77.60
25855;BME280;13680;49.936;11.344;2023-02-15T08:51:24;97996.63;;;1.84;77.19
25855;BME280;13680;49.936;11.344;2023-02-15T08:53:52;97992.66;;;1.68;76.76
25855;BME280;13680;49.936;11.344;2023-02-15T08:56:20;97989.72;;;1.83;76.72
25855;BME280;13680;49.936;11.344;2023-02-15T08:58:46;97995.00;;;1.89;76.87
25855;BME280;13680;49.936;11.344;2023-02-15T09:01:14;97993.47;;;2.00;76.60
25855;BME280;13680;49.936;11.344;2023-02-15T09:03:44;98001.38;;;2.13;76.28
25855;BME280;13680;49.936;11.344;2023-02-15T09:06:10;98004.09;;;2.00;75.97
25855;BME280;13680;49.936;11.344;2023-02-15T09:08:36;98007.47;;;2.21;76.28
25855;BME280;13680;49.936;11.344;2023-02-15T09:11:10;97998.56;;;2.08;76.48
25855;BME280;13680;49.936;11.344;2023-02-15T09:13:36;98003.41;;;2.11;75.85
25855;BME280;13680;49.936;11.344;2023-02-15T09:16:04;98008.72;;;2.11;76.00
25855;BME280;13680;49.936;11.344;2023-02-15T09:18:32;97998.00;;;2.32;75.89
25855;BME280;13680;49.936;11.344;2023-02-15T09:21:08;98005.00;;;2.19;76.07
25855;BME280;13680;49.936;11.344;2023-02-15T09:23:34;98004.94;;;2.01;76.95
25855;BME280;13680;49.936;11.344;2023-02-15T09:26:07;97997.78;;;2.01;77.45
25855;BME280;13680;49.936;11.344;2023-02-15T09:28:34;98007.16;;;2.04;78.23
25855;BME280;13680;49.936;11.344;2023-02-15T09:31:17;98011.44;;;2.37;77.22
25855;BME280;13680;49.936;11.344;2023-02-15T09:33:44;98013.97;;;2.25;76.31
25855;BME280;13680;49.936;11.344;2023-02-15T09:36:28;98003.31;;;2.32;77.16
25855;BME280;13680;49.936;11.344;2023-02-15T09:39:10;98013.78;;;2.52;76.38
25855;BME280;13680;49.936;11.344;2023-02-15T09:50:20;98019.81;;;2.66;74.82
25855;BME280;13680;49.936;11.344;2023-02-15T09:56:05;98011.75;;;2.47;75.48
25855;BME280;13680;49.936;11.344;2023-02-15T10:07:33;98015.63;;;2.76;75.39
25855;BME280;13680;49.936;11.344;2023-02-15T10:13:13;98016.47;;;2.95;74.12
25855;BME280;13680;49.936;11.344;2023-02-15T10:16:07;98022.38;;;2.98;74.40
25855;BME280;13680;49.936;11.344;2023-02-15T10:21:23;98025.44;;;3.01;74.84
25855;BME280;13680;49.936;11.344;2023-02-15T10:24:09;98020.72;;;3.22;74.25
25855;BME280;13680;49.936;11.344;2023-02-15T10:26:45;98014.59;;;3.40;74.32
25855;BME280;13680;49.936;11.344;2023-02-15T10:29:33;98010.97;;;3.53;74.39
25855;BME280;13680;49.936;11.344;2023-02-15T10:34:41;98008.69;;;3.56;72.55
25855;BME280;13680;49.936;11.344;2023-02-15T10:45:28;97991.13;;;3.86;71.54
25855;BME280;13680;49.936;11.344;2023-02-15T10:50:46;97988.44;;;3.55;72.15
25855;BME280;13680;49.936;11.344;2023-02-15T10:56:23;97986.84;;;4.27;71.84
25855;BME280;13680;49.936;11.344;2023-02-15T11:02:18;97977.91;;;4.52;69.92
25855;BME280;13680;49.936;11.344;2023-02-15T11:04:48;97974.78;;;4.13;71.44
25855;BME280;13680;49.936;11.344;2023-02-15T11:07:36;97965.31;;;4.29;71.65
25855;BME280;13680;49.936;11.344;2023-02-15T11:10:26;97961.94;;;4.09;71.89
25855;BME280;13680;49.936;11.344;2023-02-15T11:12:55;97959.88;;;4.23;71.10
25855;BME280;13680;49.936;11.344;2023-02-15T11:18:13;97944.25;;;4.27;73.17
25855;BME280;13680;49.936;11.344;2023-02-15T11:20:53;97941.41;;;4.40;72.21
25855;BME280;13680;49.936;11.344;2023-02-15T11:23:20;97942.91;;;4.72;71.82
25855;BME280;13680;49.936;11.344;2023-02-15T11:25:53;97934.91;;;4.60;72.03
25855;BME280;13680;49.936;11.344;2023-02-15T11:28:47;97920.78;;;4.83;72.17
25855;BME280;13680;49.936;11.344;2023-02-15T11:31:20;97925.16;;;5.01;71.64
25855;BME280;13680;49.936;11.344;2023-02-15T11:34:00;97916.78;;;5.21;71.34
25855;BME280;13680;49.936;11.344;2023-02-15T11:36:34;97913.63;;;5.36;70.32
25855;BME280;13680;49.936;11.344;2023-02-15T11:39:12;97907.22;;;5.95;69.06
25855;BME280;13680;49.936;11.344;2023-02-15T11:41:42;97908.16;;;6.52;66.93
25855;BME280;13680;49.936;11.344;2023-02-15T11:44:19;97902.28;;;6.89;63.88
25855;BME280;13680;49.936;11.344;2023-02-15T11:46:46;97900.47;;;7.39;63.19
25855;BME280;13680;49.936;11.344;2023-02-15T11:49:30;97893.94;;;7.52;62.27
25855;BME280;13680;49.936;11.344;2023-02-15T11:51:57;97884.31;;;7.56;62.67
25855;BME280;13680;49.936;11.344;2023-02-15T11:54:31;97876.75;;;8.02;60.36
25855;BME280;13680;49.936;11.344;2023-02-15T12:00:14;97874.91;;;9.42;56.85
25855;BME280;13680;49.936;11.344;2023-02-15T12:02:46;97870.16;;;10.06;54.80
25855;BME280;13680;49.936;11.344;2023-02-15T12:05:20;97875.53;;;9.75;53.53
25855;BME280;13680;49.936;11.344;2023-02-15T12:08:10;97881.19;;;9.05;56.23
25855;BME280;13680;49.936;11.344;2023-02-15T12:10:42;97887.13;;;9.17;55.96
25855;BME280;13680;49.936;11.344;2023-02-15T12:13:11;97879.19;;;9.43;55.64
25855;BME280;13680;49.936;11.344;2023-02-15T12:15:37;97878.69;;;9.51;56.23
25855;BME280;13680;49.936;11.344;2023-02-15T12:18:04;97866.41;;;10.12;55.86
25855;BME280;13680;49.936;11.344;2023-02-15T12:20:32;97876.22;;;8.76;57.65
25855;BME280;13680;49.936;11.344;2023-02-15T12:23:03;97867.81;;;9.10;57.68
25855;BME280;13680;49.936;11.344;2023-02-15T12:25:37;97878.66;;;9.41;56.32
25855;BME280;13680;49.936;11.344;2023-02-15T12:30:46;97857.16;;;10.95;51.70
25855;BME280;13680;49.936;11.344;2023-02-15T12:33:31;97855.13;;;10.56;52.73
25855;BME280;13680;49.936;11.344;2023-02-15T12:36:12;97858.84;;;9.62;52.89
25855;BME280;13680;49.936;11.344;2023-02-15T12:38:40;97863.38;;;8.83;55.68
25855;BME280;13680;49.936;11.344;2023-02-15T12:41:23;97858.56;;;8.90;55.69
25855;BME280;13680;49.936;11.344;2023-02-15T12:44:16;97850.84;;;8.46;58.60
25855;BME280;13680;49.936;11.344;2023-02-15T12:47:40;97854.13;;;8.58;58.00
25855;BME280;13680;49.936;11.344;2023-02-15T12:49:40;97834.41;;;8.85;58.18
25855;BME280;13680;49.936;11.344;2023-02-15T12:54:45;97841.63;;;9.53;57.74
25855;BME280;13680;49.936;11.344;2023-02-15T12:57:22;97831.56;;;10.98;53.52
25855;BME280;13680;49.936;11.344;2023-02-15T12:59:53;97828.19;;;11.77;51.59
25855;BME280;13680;49.936;11.344;2023-02-15T13:02:22;97822.03;;;12.11;50.48
25855;BME280;13680;49.936;11.344;2023-02-15T13:04:49;97826.44;;;12.31;51.23
25855;BME280;13680;49.936;11.344;2023-02-15T13:07:15;97819.72;;;12.58;47.81
25855;BME280;13680;49.936;11.344;2023-02-15T13:09:40;97816.88;;;12.44;48.20
25855;BME280;13680;49.936;11.344;2023-02-15T13:12:24;97806.06;;;13.17;46.90
25855;BME280;13680;49.936;11.344;2023-02-15T13:14:56;97810.47;;;13.07;47.08
25855;BME280;13680;49.936;11.344;2023-02-15T13:17:26;97811.59;;;14.02;45.63
25855;BME280;13680;49.936;11.344;2023-02-15T13:19:57;97799.41;;;13.85;44.58
25855;BME280;13680;49.936;11.344;2023-02-15T13:22:35;97803.63;;;14.24;44.86
25855;BME280;13680;49.936;11.344;2023-02-15T13:25:13;97808.97;;;14.44;43.72
25855;BME280;13680;49.936;11.344;2023-02-15T13:27:41;97799.53;;;14.74;44.68
25855;BME280;13680;49.936;11.344;2023-02-15T13:30:18;97799.03;;;14.39;42.97
25855;BME280;13680;49.936;11.344;2023-02-15T13:32:45;97790.59;;;13.61;45.30
25855;BME280;13680;49.936;11.344;2023-02-15T13:35:17;97789.41;;;14.66;43.02
25855;BME280;13680;49.936;11.344;2023-02-15T13:38:06;97802.66;;;14.34;43.56
25855;BME280;13680;49.936;11.344;2023-02-15T13:40:48;97793.88;;;14.10;44.91
25855;BME280;13680;49.936;11.344;2023-02-15T13:52:08;97789.09;;;14.95;42.00
25855;BME280;13680;49.936;11.344;2023-02-15T13:57:47;97798.91;;;15.55;40.85
25855;BME280;13680;49.936;11.344;2023-02-15T14:00:26;97805.94;;;14.78;42.26
25855;BME280;13680;49.936;11.344;2023-02-15T14:06:13;97797.38;;;14.57;42.63
25855;BME280;13680;49.936;11.344;2023-02-15T14:09:08;97794.72;;;15.35;41.79
25855;BME280;13680;49.936;11.344;2023-02-15T14:17:29;97785.94;;;16.43;38.16
25855;BME280;13680;49.936;11.344;2023-02-15T14:20:08;97783.28;;;16.61;38.48
25855;BME280;13680;49.936;11.344;2023-02-15T14:22:44;97788.75;;;16.29;38.68
25855;BME280;13680;49.936;11.344;2023-02-15T14:25:31;97788.09;;;15.42;40.39
25855;BME280;13680;49.936;11.344;2023-02-15T14:28:07;97790.41;;;14.70;41.34
25855;BME280;13680;49.936;11.344;2023-02-15T14:30:37;97784.03;;;14.33;42.51
25855;BME280;13680;49.936;11.344;2023-02-15T14:33:29;97784.09;;;14.14;42.54
25855;BME280;13680;49.936;11.344;2023-02-15T14:35:56;97788.13;;;13.45;43.84
25855;BME280;13680;49.936;11.344;2023-02-15T14:41:13;97782.19;;;12.81;45.69
25855;BME280;13680;49.936;11.344;2023-02-15T14:49:23;97785.66;;;11.34;49.27
25855;BME280;13680;49.936;11.344;2023-02-15T14:59:42;97785.50;;;9.57;55.21
25855;BME280;13680;49.936;11.344;2023-02-15T15:02:18;97786.28;;;9.31;55.17
25855;BME280;13680;49.936;11.344;2023-02-15T15:12:46;97777.78;;;8.23;59.89
25855;BME280;13680;49.936;11.344;2023-02-15T15:17:53;97787.78;;;8.00;61.33
25855;BME280;13680;49.936;11.344;2023-02-15T15:25:45;97770.75;;;7.47;63.05
25855;BME280;13680;49.936;11.344;2023-02-15T15:31:22;97775.16;;;7.03;65.38
25855;BME280;13680;49.936;11.344;2023-02-15T15:36:41;97759.13;;;6.81;65.40
25855;BME280;13680;49.936;11.344;2023-02-15T15:42:12;97767.69;;;6.83;65.60
25855;BME280;13680;49.936;11.344;2023-02-15T15:48:10;97770.88;;;6.58;65.49
25855;BME280;13680;49.936;11.344;2023-02-15T15:50:39;97770.94;;;6.63;65.69
25855;BME280;13680;49.936;11.344;2023-02-15T15:53:06;97765.56;;;6.63;65.96